createdAt,value
2018-10-09T00:00:36.053Z,100.00
2018-10-09T00:03:41.243Z,100.00
2018-10-09T00:06:45.687Z,100.00
2018-10-09T00:09:51.200Z,100.00
2018-10-09T00:12:55.699Z,100.00
2018-10-09T00:16:06.948Z,100.00
2018-10-09T00:19:11.269Z,100.00
2018-10-09T00:22:16.016Z,100.00
2018-10-09T00:25:20.548Z,100.00
2018-10-09T00:28:24.852Z,100.00
2018-10-09T00:31:29.224Z,100.00
2018-10-09T00:34:33.696Z,100.00
2018-10-09T00:37:38.127Z,100.00
2018-10-09T00:40:42.443Z,100.00
2018-10-09T00:43:46.727Z,100.00
2018-10-09T00:46:51.728Z,100.00
2018-10-09T00:49:56.243Z,100.00
2018-10-09T00:53:01.336Z,100.00
2018-10-09T00:56:05.673Z,100.00
2018-10-09T00:59:09.963Z,100.00
2018-10-09T01:02:14.266Z,100.00
2018-10-09T01:05:18.612Z,100.00
2018-10-09T01:08:23.008Z,100.00
2018-10-09T01:11:28.596Z,100.00
2018-10-09T01:14:32.909Z,100.00
2018-10-09T01:17:37.288Z,100.00
2018-10-09T01:20:41.852Z,100.00
2018-10-09T01:23:46.139Z,100.00
2018-10-09T01:26:51.732Z,100.00
2018-10-09T01:29:56.107Z,100.00
2018-10-09T01:33:00.844Z,100.00
2018-10-09T01:36:05.276Z,100.00
2018-10-09T01:39:10.555Z,100.00
2018-10-09T01:42:14.876Z,100.00
2018-10-09T01:45:19.387Z,100.00
2018-10-09T01:48:23.730Z,100.00
2018-10-09T01:51:28.067Z,100.00
2018-10-09T01:54:32.483Z,100.00
2018-10-09T01:57:36.860Z,100.00
2018-10-09T02:00:41.276Z,100.00
2018-10-09T02:03:45.761Z,100.00
2018-10-09T02:06:50.312Z,100.00
2018-10-09T02:09:54.635Z,100.00
2018-10-09T02:12:58.971Z,100.00
2018-10-09T02:16:03.684Z,100.00
2018-10-09T02:19:08.052Z,100.00
2018-10-09T02:22:12.400Z,100.00
2018-10-09T02:25:16.749Z,100.00
2018-10-09T02:28:21.097Z,100.00
2018-10-09T02:31:25.401Z,100.00
2018-10-09T02:34:29.769Z,100.00
2018-10-09T02:37:34.096Z,100.00
2018-10-09T02:40:38.416Z,100.00
2018-10-09T02:43:42.778Z,100.00
2018-10-09T02:46:47.112Z,100.00
2018-10-09T02:49:51.450Z,100.00
2018-10-09T02:52:55.817Z,100.00
2018-10-09T02:56:00.223Z,100.00
2018-10-09T02:59:04.625Z,100.00
2018-10-09T03:02:08.959Z,100.00
2018-10-09T03:05:13.397Z,100.00
2018-10-09T03:08:17.853Z,100.00
2018-10-09T03:11:22.259Z,100.00
2018-10-09T03:14:26.620Z,100.00
2018-10-09T03:17:31.075Z,100.00
2018-10-09T03:20:35.395Z,100.00
2018-10-09T03:23:46.688Z,100.00
2018-10-09T03:26:52.297Z,100.00
2018-10-09T03:29:56.709Z,100.00
2018-10-09T03:33:01.054Z,100.00
2018-10-09T03:36:05.663Z,100.00
2018-10-09T03:39:10.395Z,100.00
2018-10-09T03:42:15.035Z,100.00
2018-10-09T03:45:19.740Z,100.00
2018-10-09T03:48:24.052Z,100.00
2018-10-09T03:51:35.398Z,100.00
2018-10-09T03:54:40.423Z,100.00
2018-10-09T03:57:44.945Z,100.00
2018-10-09T04:00:49.272Z,100.00
2018-10-09T04:03:53.588Z,100.00
2018-10-09T04:06:58.307Z,100.00
2018-10-09T04:10:02.831Z,100.00
2018-10-09T04:13:07.924Z,100.00
2018-10-09T04:16:14.181Z,100.00
2018-10-09T04:19:18.595Z,100.00
2018-10-09T04:22:24.353Z,100.00
2018-10-09T04:25:28.692Z,100.00
2018-10-09T04:28:33.307Z,100.00
2018-10-09T04:31:37.374Z,100.00
2018-10-09T04:34:41.808Z,100.00
2018-10-09T04:37:46.157Z,100.00
2018-10-09T04:40:50.556Z,100.00
2018-10-09T04:43:55.229Z,100.00
2018-10-09T04:46:59.517Z,100.00
2018-10-09T04:50:04.618Z,100.00
2018-10-09T04:53:09.075Z,100.00
2018-10-09T04:56:13.371Z,100.00
2018-10-09T04:59:17.698Z,100.00
2018-10-09T05:02:22.240Z,100.00
2018-10-09T05:05:26.837Z,100.00
2018-10-09T05:08:35.732Z,100.00
2018-10-09T05:11:40.061Z,100.00
2018-10-09T05:14:44.440Z,100.00
2018-10-09T05:17:49.018Z,100.00
2018-10-09T05:20:53.249Z,100.00
2018-10-09T05:23:57.600Z,100.00
2018-10-09T05:27:02.054Z,100.00
2018-10-09T05:30:06.699Z,100.00
2018-10-09T05:33:11.040Z,100.00
2018-10-09T05:36:15.655Z,100.00
2018-10-09T05:39:20.829Z,100.00
2018-10-09T05:42:24.964Z,100.00
2018-10-09T05:45:29.281Z,100.00
2018-10-09T05:48:33.634Z,100.00
2018-10-09T05:51:38.149Z,100.00
2018-10-09T05:54:43.056Z,100.00
2018-10-09T05:57:47.392Z,100.00
2018-10-09T06:00:51.975Z,100.00
2018-10-09T06:03:56.510Z,100.00
2018-10-09T06:07:00.868Z,100.00
2018-10-09T06:10:05.408Z,100.00
2018-10-09T06:13:09.829Z,100.00
2018-10-09T06:16:14.201Z,100.00
2018-10-09T06:19:18.737Z,100.00
2018-10-09T06:22:23.718Z,100.00
2018-10-09T06:25:28.044Z,100.00
2018-10-09T06:28:32.757Z,100.00
2018-10-09T06:31:37.076Z,100.00
2018-10-09T06:34:41.539Z,100.00
2018-10-09T06:37:45.928Z,100.00
2018-10-09T06:40:50.257Z,100.00
2018-10-09T06:43:54.580Z,100.00
2018-10-09T06:46:58.929Z,100.00
2018-10-09T06:50:04.004Z,100.00
2018-10-09T06:53:08.396Z,100.00
2018-10-09T06:56:13.093Z,100.00
2018-10-09T06:59:17.526Z,100.00
2018-10-09T07:02:21.956Z,100.00
2018-10-09T07:05:26.303Z,100.00
2018-10-09T07:08:30.968Z,100.00
2018-10-09T07:11:35.326Z,100.00
2018-10-09T07:14:39.781Z,100.00
2018-10-09T07:17:44.133Z,100.00
2018-10-09T07:20:48.502Z,99.93
2018-10-09T07:23:53.060Z,99.40
2018-10-09T07:26:57.582Z,100.00
2018-10-09T07:30:02.021Z,100.00
2018-10-09T07:33:06.772Z,100.00
2018-10-09T07:36:11.144Z,100.00
2018-10-09T07:39:15.683Z,99.93
2018-10-09T07:42:20.192Z,99.41
2018-10-09T07:45:24.584Z,100.00
2018-10-09T07:48:28.948Z,100.00
2018-10-09T07:51:33.321Z,100.00
2018-10-09T07:54:38.198Z,96.81
2018-10-09T07:57:43.104Z,94.26
2018-10-09T08:00:47.716Z,94.08
2018-10-09T08:03:52.032Z,95.07
2018-10-09T08:06:56.492Z,93.59
2018-10-09T08:10:00.895Z,91.33
2018-10-09T08:13:05.205Z,92.03
2018-10-09T08:16:10.332Z,92.19
2018-10-09T08:19:14.633Z,94.80
2018-10-09T08:22:19.209Z,95.35
2018-10-09T08:25:23.580Z,93.73
2018-10-09T08:28:27.947Z,93.17
2018-10-09T08:31:32.514Z,92.73
2018-10-09T08:34:37.311Z,91.16
2018-10-09T08:37:41.857Z,89.78
2018-10-09T08:40:47.067Z,86.98
2018-10-09T08:43:51.580Z,86.71
2018-10-09T08:46:56.036Z,85.72
2018-10-09T08:50:00.484Z,83.20
2018-10-09T08:53:04.977Z,84.92
2018-10-09T08:56:09.296Z,85.22
2018-10-09T08:59:13.711Z,85.17
2018-10-09T09:02:18.116Z,83.62
2018-10-09T09:05:22.655Z,82.33
2018-10-09T09:08:26.980Z,79.89
2018-10-09T09:11:31.297Z,80.31
2018-10-09T09:14:35.626Z,79.31
2018-10-09T09:17:40.176Z,81.91
2018-10-09T09:20:44.542Z,83.55
2018-10-09T09:23:48.969Z,83.12
2018-10-09T09:26:53.495Z,82.57
2018-10-09T09:29:59.448Z,83.14
2018-10-09T09:33:03.923Z,84.91
2018-10-09T09:36:08.448Z,84.24
2018-10-09T09:39:12.843Z,80.90
2018-10-09T09:42:17.235Z,80.09
2018-10-09T09:45:21.607Z,80.80
2018-10-09T09:48:26.042Z,80.34
2018-10-09T09:51:30.417Z,78.62
2018-10-09T09:54:34.857Z,78.81
2018-10-09T09:57:39.176Z,78.21
2018-10-09T10:00:48.906Z,78.89
2018-10-09T10:03:53.233Z,79.29
2018-10-09T10:06:57.573Z,78.95
2018-10-09T10:10:01.670Z,78.97
2018-10-09T10:13:06.596Z,77.82
2018-10-09T10:16:11.539Z,77.16
2018-10-09T10:19:15.944Z,76.31
2018-10-09T10:22:21.043Z,77.06
2018-10-09T10:25:25.373Z,77.00
2018-10-09T10:28:29.759Z,77.91
2018-10-09T10:31:34.090Z,78.78
2018-10-09T10:34:38.610Z,80.36
2018-10-09T10:37:42.931Z,79.27
2018-10-09T10:40:48.515Z,78.46
2018-10-09T10:43:52.933Z,78.65
2018-10-09T10:46:57.368Z,77.84
2018-10-09T10:50:01.881Z,77.89
2018-10-09T10:53:06.203Z,78.72
2018-10-09T10:56:10.523Z,77.78
2018-10-09T10:59:14.846Z,77.95
2018-10-09T11:02:19.201Z,76.93
2018-10-09T11:05:23.499Z,77.97
2018-10-09T11:08:28.729Z,78.61
2018-10-09T11:11:33.059Z,77.43
2018-10-09T11:14:37.655Z,77.39
2018-10-09T11:17:41.913Z,76.76
2018-10-09T11:20:47.957Z,74.74
2018-10-09T11:23:52.441Z,73.59
2018-10-09T11:26:56.783Z,75.44
2018-10-09T11:30:01.085Z,75.82
2018-10-09T11:33:06.058Z,74.92
2018-10-09T11:36:10.469Z,75.27
2018-10-09T11:39:14.957Z,77.25
2018-10-09T11:42:19.548Z,76.82
2018-10-09T11:45:24.988Z,77.54
2018-10-09T11:48:29.481Z,75.12
2018-10-09T11:51:34.047Z,74.21
2018-10-09T11:54:38.607Z,75.98
2018-10-09T11:57:42.909Z,77.74
2018-10-09T12:00:49.113Z,78.11
2018-10-09T12:03:53.736Z,77.42
2018-10-09T12:06:58.146Z,76.70
2018-10-09T12:10:02.476Z,77.76
2018-10-09T12:13:07.700Z,79.71
2018-10-09T12:16:12.023Z,79.72
2018-10-09T12:19:17.125Z,79.71
2018-10-09T12:22:21.461Z,80.24
2018-10-09T12:25:25.984Z,79.65
2018-10-09T12:28:31.949Z,77.95
2018-10-09T12:31:36.307Z,76.95
2018-10-09T12:34:40.677Z,76.79
2018-10-09T12:37:44.762Z,74.56
2018-10-09T12:40:49.418Z,73.87
2018-10-09T12:43:53.890Z,73.33
2018-10-09T12:46:58.975Z,73.25
2018-10-09T12:50:03.375Z,73.33
2018-10-09T12:53:08.006Z,73.37
2018-10-09T12:56:12.373Z,74.05
2018-10-09T12:59:29.407Z,78.49
2018-10-09T13:02:34.396Z,81.73
2018-10-09T13:05:39.930Z,83.84
2018-10-09T13:08:44.560Z,84.70
2018-10-09T13:11:49.127Z,84.35
2018-10-09T13:14:53.818Z,84.78
2018-10-09T13:17:58.573Z,82.17
2018-10-09T13:21:03.121Z,79.64
2018-10-09T13:24:07.542Z,78.63
2018-10-09T13:27:12.038Z,78.02
2018-10-09T13:30:16.440Z,78.51
2018-10-09T13:33:21.601Z,80.00
2018-10-09T13:36:25.889Z,80.77
2018-10-09T13:39:30.340Z,79.87
2018-10-09T13:42:34.777Z,80.26
2018-10-09T13:45:39.390Z,82.07
2018-10-09T13:48:44.040Z,83.17
2018-10-09T13:51:48.629Z,85.52
2018-10-09T13:54:53.741Z,86.70
2018-10-09T13:57:58.256Z,86.87
2018-10-09T14:01:02.924Z,87.12
2018-10-09T14:04:07.824Z,84.83
2018-10-09T14:07:12.320Z,83.23
2018-10-09T14:10:16.924Z,83.12
2018-10-09T14:13:21.430Z,82.69
2018-10-09T14:16:25.923Z,82.30
2018-10-09T14:19:30.397Z,82.30
2018-10-09T14:22:36.005Z,81.44
2018-10-09T14:25:41.317Z,81.42
2018-10-09T14:28:45.996Z,82.31
2018-10-09T14:31:50.574Z,82.70
2018-10-09T14:34:55.083Z,84.42
2018-10-09T14:37:59.583Z,85.35
2018-10-09T14:41:05.418Z,85.54
2018-10-09T14:44:10.902Z,85.74
2018-10-09T14:47:15.388Z,86.35
2018-10-09T14:50:19.863Z,86.73
2018-10-09T14:53:25.311Z,87.20
2018-10-09T14:56:29.771Z,88.49
2018-10-09T14:59:34.872Z,89.04
2018-10-09T15:02:39.973Z,89.02
2018-10-09T15:05:44.368Z,89.32
2018-10-09T15:08:48.896Z,89.75
2018-10-09T15:11:53.941Z,90.43
2018-10-09T15:14:58.300Z,91.64
2018-10-09T15:18:02.660Z,92.80
2018-10-09T15:21:07.785Z,92.44
2018-10-09T15:24:12.151Z,92.68
2018-10-09T15:27:16.497Z,92.75
2018-10-09T15:30:20.809Z,93.09
2018-10-09T15:33:25.160Z,94.39
2018-10-09T15:36:29.465Z,95.57
2018-10-09T15:39:33.844Z,95.49
2018-10-09T15:42:38.378Z,96.02
2018-10-09T15:45:42.684Z,95.94
2018-10-09T15:48:46.994Z,96.29
2018-10-09T15:55:06.448Z,96.74
2018-10-09T15:58:11.067Z,98.03
2018-10-09T16:01:15.505Z,99.34
2018-10-09T16:04:20.173Z,100.00
2018-10-09T16:07:25.154Z,100.00
2018-10-09T16:10:29.711Z,100.00
2018-10-09T16:13:34.049Z,100.00
2018-10-09T16:16:38.378Z,100.00
2018-10-09T16:19:42.749Z,100.00
2018-10-09T16:22:47.174Z,100.00
2018-10-09T16:25:54.708Z,100.00
2018-10-09T16:28:58.986Z,100.00
2018-10-09T16:32:05.771Z,100.00
2018-10-09T16:35:12.506Z,100.00
2018-10-09T16:38:20.132Z,100.00
2018-10-09T16:41:31.418Z,100.00
2018-10-09T16:44:36.818Z,100.00
2018-10-09T16:47:41.733Z,100.00
2018-10-09T16:50:46.161Z,100.00
2018-10-09T16:53:50.803Z,100.00
2018-10-09T16:56:55.241Z,100.00
2018-10-09T16:59:59.769Z,100.00
2018-10-09T17:03:04.197Z,100.00
2018-10-09T17:06:11.529Z,100.00
2018-10-09T17:09:18.422Z,100.00
2018-10-09T17:12:24.160Z,100.00
2018-10-09T17:15:29.204Z,100.00
2018-10-09T17:18:34.997Z,100.00
2018-10-09T17:21:41.231Z,100.00
2018-10-09T17:24:47.665Z,100.00
2018-10-09T17:27:52.759Z,100.00
2018-10-09T17:31:00.431Z,100.00
2018-10-09T17:34:07.626Z,100.00
2018-10-09T17:37:14.181Z,100.00
2018-10-09T17:44:02.420Z,100.00
2018-10-09T17:47:11.125Z,100.00
2018-10-09T17:50:18.774Z,100.00
2018-10-09T17:53:24.258Z,100.00
2018-10-09T17:56:29.145Z,100.00
2018-10-09T17:59:33.942Z,100.00
2018-10-09T18:02:42.685Z,100.00
2018-10-09T18:05:49.022Z,100.00
2018-10-09T18:08:54.253Z,100.00
2018-10-09T18:11:59.349Z,100.00
2018-10-09T18:15:05.819Z,100.00
2018-10-09T18:18:12.151Z,100.00
2018-10-09T18:21:17.940Z,100.00
2018-10-09T18:24:22.486Z,100.00
2018-10-09T18:27:27.288Z,100.00
2018-10-09T18:30:32.324Z,100.00
2018-10-09T18:33:37.534Z,100.00
2018-10-09T18:36:43.421Z,100.00
2018-10-09T18:40:02.779Z,100.00
2018-10-09T18:43:07.926Z,100.00
2018-10-09T18:46:12.804Z,100.00
2018-10-09T18:49:17.624Z,100.00
2018-10-09T18:52:22.329Z,100.00
2018-10-09T18:55:28.714Z,100.00
2018-10-09T18:58:39.593Z,100.00
2018-10-09T19:05:00.796Z,100.00
2018-10-09T19:08:05.548Z,100.00
2018-10-09T19:11:10.088Z,100.00
2018-10-09T19:14:14.630Z,100.00
2018-10-09T19:17:19.684Z,100.00
2018-10-09T19:20:24.185Z,100.00
2018-10-09T19:23:29.783Z,100.00
2018-10-09T19:26:34.421Z,100.00
2018-10-09T19:29:39.086Z,100.00
2018-10-09T19:32:43.813Z,100.00
2018-10-09T19:35:48.132Z,100.00
2018-10-09T19:38:52.848Z,100.00
2018-10-09T19:41:57.355Z,100.00
2018-10-09T19:45:01.891Z,100.00
2018-10-09T19:48:06.189Z,100.00
2018-10-09T19:51:11.072Z,100.00
2018-10-09T19:54:15.259Z,100.00
2018-10-09T19:57:19.612Z,100.00
2018-10-09T20:00:24.376Z,100.00
2018-10-09T20:03:28.854Z,100.00
2018-10-09T20:06:34.025Z,100.00
2018-10-09T20:09:38.374Z,100.00
2018-10-09T20:12:42.828Z,100.00
2018-10-09T20:15:47.615Z,100.00
2018-10-09T20:18:52.047Z,100.00
2018-10-09T20:21:56.468Z,100.00
2018-10-09T20:25:01.469Z,100.00
2018-10-09T20:28:06.027Z,100.00
2018-10-09T20:31:10.404Z,100.00
2018-10-09T20:34:15.009Z,100.00
2018-10-09T20:37:19.688Z,100.00
2018-10-09T20:40:24.360Z,100.00
2018-10-09T20:43:28.693Z,100.00
2018-10-09T20:46:33.006Z,100.00
2018-10-09T20:49:37.305Z,100.00
2018-10-09T20:52:41.740Z,100.00
2018-10-09T20:55:46.118Z,100.00
2018-10-09T20:58:50.660Z,100.00
2018-10-09T21:01:54.995Z,100.00
2018-10-09T21:04:59.717Z,100.00
2018-10-09T21:08:04.194Z,100.00
2018-10-09T21:11:08.995Z,100.00
2018-10-09T21:14:13.693Z,100.00
2018-10-09T21:17:18.235Z,100.00
2018-10-09T21:20:22.688Z,100.00
2018-10-09T21:23:27.168Z,100.00
2018-10-09T21:26:31.772Z,100.00
2018-10-09T21:29:36.298Z,100.00
2018-10-09T21:32:40.885Z,100.00
2018-10-09T21:35:45.227Z,100.00
2018-10-09T21:38:49.564Z,100.00
2018-10-09T21:41:54.708Z,100.00
2018-10-09T21:44:59.083Z,100.00
2018-10-09T21:48:04.557Z,100.00
2018-10-09T21:51:09.311Z,100.00
2018-10-09T21:54:13.846Z,100.00
2018-10-09T21:57:19.070Z,100.00
2018-10-09T22:00:23.447Z,100.00
2018-10-09T22:03:28.056Z,100.00
2018-10-09T22:06:32.525Z,100.00
2018-10-09T22:09:37.116Z,100.00
2018-10-09T22:12:41.451Z,100.00
2018-10-09T22:15:45.851Z,100.00
2018-10-09T22:18:50.199Z,100.00
2018-10-09T22:21:55.318Z,100.00
2018-10-09T22:25:02.618Z,100.00
2018-10-09T22:28:06.969Z,100.00
2018-10-09T22:31:11.951Z,100.00
2018-10-09T22:34:16.440Z,100.00
2018-10-09T22:37:21.353Z,100.00
2018-10-09T22:40:25.773Z,100.00
2018-10-09T22:43:30.223Z,100.00
2018-10-09T22:46:34.568Z,100.00
2018-10-09T22:49:38.873Z,100.00
2018-10-09T22:52:43.401Z,100.00
2018-10-09T22:55:47.739Z,100.00
2018-10-09T22:58:52.510Z,100.00
2018-10-09T23:01:57.114Z,100.00
2018-10-09T23:05:02.225Z,100.00
2018-10-09T23:08:06.680Z,100.00
2018-10-09T23:11:11.008Z,100.00
2018-10-09T23:14:16.812Z,100.00
2018-10-09T23:17:21.352Z,100.00
2018-10-09T23:20:25.640Z,100.00
2018-10-09T23:23:30.482Z,100.00
2018-10-09T23:26:34.947Z,100.00
2018-10-09T23:29:39.350Z,100.00
2018-10-09T23:32:43.766Z,100.00
2018-10-09T23:35:48.068Z,100.00
2018-10-09T23:38:53.100Z,100.00
2018-10-09T23:41:57.416Z,100.00
2018-10-09T23:45:01.847Z,100.00
2018-10-09T23:48:09.264Z,100.00
2018-10-09T23:51:13.611Z,100.00
2018-10-09T23:54:17.964Z,100.00
2018-10-09T23:57:22.484Z,100.00
